Terminal Aerodrome Forecast
Issued by NWS

Home | Current Version | Previous Version | Text Only | Print | Product List | Glossary On
Versions: 1 2 3 4 5 6 7 8 9 10 11 12 13 14 15 16 17 18 19 20 21 22 23 24 25
521
FTUS41 KOKX 180522
TAFHPN
TAF
KHPN 180522Z 1806/1906 07009KT 1SM -RA BR OVC003
     FM180900 VRB05KT 1SM -RA BR VV002
     FM181500 34006KT 2SM BR BKN005 OVC010
     FM181800 34007KT 4SM BR BKN008 OVC015
     FM182200 VRB04KT 6SM BR BKN015 OVC025
      AMD NOT SKED=

USA.gov is the U.S. government's official web portal to all federal, state and local government web resources and services.